sensor_id;sensor_type;location;lat;lon;timestamp;pressure;altitude;pressure_sealevel;temperature;humidity
54038;BME280;39954;48.844;9.726;2023-05-24T00:00:01;96356.78;;;10.35;100.00
54038;BME280;39954;48.844;9.726;2023-05-24T00:01:05;96351.44;;;10.38;100.00
54038;BME280;39954;48.844;9.726;2023-05-24T00:02:13;96354.03;;;10.38;100.00
54038;BME280;39954;48.844;9.726;2023-05-24T00:03:15;96352.34;;;10.37;100.00
54038;BME280;39954;48.844;9.726;2023-05-24T00:04:22;96347.00;;;10.40;100.00
54038;BME280;39954;48.844;9.726;2023-05-24T00:05:31;96350.28;;;10.44;100.00
54038;BME280;39954;48.844;9.726;2023-05-24T00:06:34;96342.47;;;10.44;100.00
54038;BME280;39954;48.844;9.726;2023-05-24T00:07:38;96348.00;;;10.38;100.00
54038;BME280;39954;48.844;9.726;2023-05-24T00:08:41;96346.41;;;10.35;100.00
54038;BME280;39954;48.844;9.726;2023-05-24T00:09:46;96347.31;;;10.34;100.00
54038;BME280;39954;48.844;9.726;2023-05-24T00:10:48;96350.97;;;10.30;100.00
54038;BME280;39954;48.844;9.726;2023-05-24T00:11:52;96347.69;;;10.26;100.00
54038;BME280;39954;48.844;9.726;2023-05-24T00:12:54;96345.94;;;10.27;100.00
54038;BME280;39954;48.844;9.726;2023-05-24T00:14:00;96344.13;;;10.29;100.00
54038;BME280;39954;48.844;9.726;2023-05-24T00:15:02;96346.72;;;10.29;100.00
54038;BME280;39954;48.844;9.726;2023-05-24T00:16:07;96340.59;;;10.30;100.00
54038;BME280;39954;48.844;9.726;2023-05-24T00:17:10;96338.75;;;10.32;100.00
54038;BME280;39954;48.844;9.726;2023-05-24T00:18:17;96341.44;;;10.30;100.00
54038;BME280;39954;48.844;9.726;2023-05-24T00:19:19;96334.75;;;10.25;100.00
54038;BME280;39954;48.844;9.726;2023-05-24T00:20:24;96329.50;;;10.26;100.00
54038;BME280;39954;48.844;9.726;2023-05-24T00:21:27;96331.50;;;10.21;100.00
54038;BME280;39954;48.844;9.726;2023-05-24T00:22:32;96334.19;;;10.20;100.00
54038;BME280;39954;48.844;9.726;2023-05-24T00:23:35;96336.53;;;10.24;100.00
54038;BME280;39954;48.844;9.726;2023-05-24T00:24:40;96327.13;;;10.22;100.00
54038;BME280;39954;48.844;9.726;2023-05-24T00:25:42;96328.53;;;10.29;100.00
54038;BME280;39954;48.844;9.726;2023-05-24T00:26:47;96326.91;;;10.26;100.00
54038;BME280;39954;48.844;9.726;2023-05-24T00:27:49;96326.22;;;10.23;100.00
54038;BME280;39954;48.844;9.726;2023-05-24T00:28:54;96333.31;;;10.19;100.00
54038;BME280;39954;48.844;9.726;2023-05-24T00:29:56;96334.19;;;10.20;100.00
54038;BME280;39954;48.844;9.726;2023-05-24T00:31:01;96326.53;;;10.17;100.00
54038;BME280;39954;48.844;9.726;2023-05-24T00:32:04;96327.44;;;10.16;100.00
54038;BME280;39954;48.844;9.726;2023-05-24T00:33:09;96328.53;;;10.12;100.00
54038;BME280;39954;48.844;9.726;2023-05-24T00:34:14;96325.22;;;10.08;100.00
54038;BME280;39954;48.844;9.726;2023-05-24T00:35:19;96314.84;;;10.08;100.00
54038;BME280;39954;48.844;9.726;2023-05-24T00:36:21;96313.94;;;10.09;100.00
54038;BME280;39954;48.844;9.726;2023-05-24T00:37:26;96320.97;;;10.07;100.00
54038;BME280;39954;48.844;9.726;2023-05-24T00:38:28;96314.19;;;10.04;100.00
54038;BME280;39954;48.844;9.726;2023-05-24T00:39:32;96312.34;;;10.06;100.00
54038;BME280;39954;48.844;9.726;2023-05-24T00:40:35;96317.59;;;10.05;100.00
54038;BME280;39954;48.844;9.726;2023-05-24T00:41:40;96308.97;;;10.04;100.00
54038;BME280;39954;48.844;9.726;2023-05-24T00:42:42;96308.97;;;10.04;100.00
54038;BME280;39954;48.844;9.726;2023-05-24T00:43:47;96309.81;;;10.05;100.00
54038;BME280;39954;48.844;9.726;2023-05-24T00:44:49;96307.47;;;10.00;100.00
54038;BME280;39954;48.844;9.726;2023-05-24T00:46:15;96310.22;;;9.97;100.00
54038;BME280;39954;48.844;9.726;2023-05-24T00:47:18;96305.25;;;9.93;100.00
54038;BME280;39954;48.844;9.726;2023-05-24T00:48:22;96303.34;;;9.96;100.00
54038;BME280;39954;48.844;9.726;2023-05-24T00:49:32;96302.44;;;9.97;100.00
54038;BME280;39954;48.844;9.726;2023-05-24T00:50:38;96300.84;;;9.95;100.00
54038;BME280;39954;48.844;9.726;2023-05-24T00:51:42;96297.53;;;9.91;100.00
54038;BME280;39954;48.844;9.726;2023-05-24T00:52:48;96302.66;;;9.93;100.00
54038;BME280;39954;48.844;9.726;2023-05-24T00:53:50;96297.41;;;9.94;100.00
54038;BME280;39954;48.844;9.726;2023-05-24T00:54:55;96295.72;;;9.93;100.00
54038;BME280;39954;48.844;9.726;2023-05-24T00:55:57;96292.28;;;9.93;100.00
54038;BME280;39954;48.844;9.726;2023-05-24T00:57:03;96294.88;;;9.93;100.00
54038;BME280;39954;48.844;9.726;2023-05-24T00:58:05;96294.88;;;9.93;100.00
54038;BME280;39954;48.844;9.726;2023-05-24T00:59:10;96294.94;;;9.91;100.00
54038;BME280;39954;48.844;9.726;2023-05-24T01:00:13;96291.97;;;9.99;100.00
54038;BME280;39954;48.844;9.726;2023-05-24T01:01:18;96286.09;;;9.95;100.00
54038;BME280;39954;48.844;9.726;2023-05-24T01:02:20;96287.09;;;9.93;100.00
54038;BME280;39954;48.844;9.726;2023-05-24T01:03:26;96290.84;;;9.87;100.00
54038;BME280;39954;48.844;9.726;2023-05-24T01:04:33;96289.06;;;9.88;100.00
54038;BME280;39954;48.844;9.726;2023-05-24T01:05:38;96295.88;;;9.90;100.00
54038;BME280;39954;48.844;9.726;2023-05-24T01:06:49;96291.66;;;9.88;100.00
54038;BME280;39954;48.844;9.726;2023-05-24T01:08:02;96297.34;;;9.78;100.00
54038;BME280;39954;48.844;9.726;2023-05-24T01:09:15;96295.41;;;9.82;100.00
54038;BME280;39954;48.844;9.726;2023-05-24T01:10:26;96297.34;;;9.78;100.00
54038;BME280;39954;48.844;9.726;2023-05-24T01:11:44;96297.50;;;9.75;100.00
54038;BME280;39954;48.844;9.726;2023-05-24T01:13:01;96295.03;;;9.72;100.00
54038;BME280;39954;48.844;9.726;2023-05-24T01:14:13;96293.44;;;9.70;100.00
54038;BME280;39954;48.844;9.726;2023-05-24T01:15:27;96292.63;;;9.69;100.00
54038;BME280;39954;48.844;9.726;2023-05-24T01:16:39;96298.09;;;9.63;100.00
54038;BME280;39954;48.844;9.726;2023-05-24T01:17:52;96302.69;;;9.58;100.00
54038;BME280;39954;48.844;9.726;2023-05-24T01:18:56;96296.88;;;9.53;100.00
54038;BME280;39954;48.844;9.726;2023-05-24T01:20:08;96290.84;;;9.52;100.00
54038;BME280;39954;48.844;9.726;2023-05-24T01:21:23;96304.09;;;9.46;100.00
54038;BME280;39954;48.844;9.726;2023-05-24T01:22:51;96292.69;;;9.50;100.00
54038;BME280;39954;48.844;9.726;2023-05-24T01:24:07;96304.09;;;9.46;100.00
54038;BME280;39954;48.844;9.726;2023-05-24T01:25:22;96305.19;;;9.42;100.00
54038;BME280;39954;48.844;9.726;2023-05-24T01:26:36;96306.31;;;9.36;100.00
54038;BME280;39954;48.844;9.726;2023-05-24T01:27:46;96305.75;;;9.30;100.00
54038;BME280;39954;48.844;9.726;2023-05-24T01:28:49;96304.88;;;9.31;100.00
54038;BME280;39954;48.844;9.726;2023-05-24T01:29:55;96297.97;;;9.30;100.00
54038;BME280;39954;48.844;9.726;2023-05-24T01:30:59;96304.09;;;9.29;100.00
54038;BME280;39954;48.844;9.726;2023-05-24T01:32:05;96295.84;;;9.21;100.00
54038;BME280;39954;48.844;9.726;2023-05-24T01:33:08;96303.06;;;9.14;100.00
54038;BME280;39954;48.844;9.726;2023-05-24T01:34:13;96304.41;;;9.04;100.00
54038;BME280;39954;48.844;9.726;2023-05-24T01:35:15;96314.09;;;9.00;100.00
54038;BME280;39954;48.844;9.726;2023-05-24T01:36:20;96311.03;;;8.92;100.00
54038;BME280;39954;48.844;9.726;2023-05-24T01:37:22;96312.84;;;8.90;100.00
54038;BME280;39954;48.844;9.726;2023-05-24T01:38:27;96306.91;;;8.88;100.00
54038;BME280;39954;48.844;9.726;2023-05-24T01:39:29;96307.94;;;8.84;100.00
54038;BME280;39954;48.844;9.726;2023-05-24T01:40:35;96305.56;;;8.79;100.00
54038;BME280;39954;48.844;9.726;2023-05-24T01:41:42;96314.41;;;8.75;100.00
54038;BME280;39954;48.844;9.726;2023-05-24T01:43:02;96315.09;;;8.79;100.00
54038;BME280;39954;48.844;9.726;2023-05-24T01:44:12;96313.41;;;8.78;100.00
54038;BME280;39954;48.844;9.726;2023-05-24T01:45:22;96306.63;;;8.75;100.00
54038;BME280;39954;48.844;9.726;2023-05-24T01:46:34;96306.69;;;8.73;100.00
54038;BME280;39954;48.844;9.726;2023-05-24T01:47:48;96319.84;;;8.69;100.00
54038;BME280;39954;48.844;9.726;2023-05-24T01:49:00;96311.50;;;8.62;100.00
54038;BME280;39954;48.844;9.726;2023-05-24T01:50:20;96314.53;;;8.53;100.00
54038;BME280;39954;48.844;9.726;2023-05-24T01:51:33;96317.44;;;8.45;100.00
54038;BME280;39954;48.844;9.726;2023-05-24T01:52:43;96316.75;;;8.42;100.00
54038;BME280;39954;48.844;9.726;2023-05-24T01:53:47;96318.81;;;8.34;100.00
54038;BME280;39954;48.844;9.726;2023-05-24T01:54:55;96330.09;;;8.33;100.00
54038;BME280;39954;48.844;9.726;2023-05-24T01:56:00;96321.94;;;8.21;100.00
54038;BME280;39954;48.844;9.726;2023-05-24T01:57:06;96324.81;;;8.15;100.00
54038;BME280;39954;48.844;9.726;2023-05-24T01:58:15;96325.13;;;8.07;100.00
54038;BME280;39954;48.844;9.726;2023-05-24T01:59:21;96326.28;;;8.00;100.00
54038;BME280;39954;48.844;9.726;2023-05-24T02:00:25;96322.22;;;7.95;100.00
54038;BME280;39954;48.844;9.726;2023-05-24T02:01:30;96326.75;;;7.90;100.00
54038;BME280;39954;48.844;9.726;2023-05-24T02:02:32;96319.97;;;7.87;100.00
54038;BME280;39954;48.844;9.726;2023-05-24T02:03:37;96322.66;;;7.84;100.00
54038;BME280;39954;48.844;9.726;2023-05-24T02:04:40;96323.66;;;7.81;100.00
54038;BME280;39954;48.844;9.726;2023-05-24T02:05:44;96320.34;;;7.78;100.00
54038;BME280;39954;48.844;9.726;2023-05-24T02:06:47;96322.94;;;7.78;100.00
54038;BME280;39954;48.844;9.726;2023-05-24T02:07:51;96327.13;;;7.80;100.00
54038;BME280;39954;48.844;9.726;2023-05-24T02:08:54;96322.88;;;7.79;100.00
54038;BME280;39954;48.844;9.726;2023-05-24T02:09:58;96327.91;;;7.82;100.00
54038;BME280;39954;48.844;9.726;2023-05-24T02:11:00;96328.06;;;7.79;100.00
54038;BME280;39954;48.844;9.726;2023-05-24T02:12:07;96327.22;;;7.79;100.00
54038;BME280;39954;48.844;9.726;2023-05-24T02:13:09;96334.91;;;7.80;100.00
54038;BME280;39954;48.844;9.726;2023-05-24T02:14:17;96330.50;;;7.82;100.00
54038;BME280;39954;48.844;9.726;2023-05-24T02:15:20;96328.56;;;7.88;100.00
54038;BME280;39954;48.844;9.726;2023-05-24T02:16:25;96334.44;;;7.91;100.00
54038;BME280;39954;48.844;9.726;2023-05-24T02:17:31;96326.50;;;7.96;100.00
54038;BME280;39954;48.844;9.726;2023-05-24T02:18:36;96333.16;;;8.01;100.00
54038;BME280;39954;48.844;9.726;2023-05-24T02:19:38;96330.50;;;8.03;100.00
54038;BME280;39954;48.844;9.726;2023-05-24T02:20:43;96334.78;;;8.04;100.00
54038;BME280;39954;48.844;9.726;2023-05-24T02:21:46;96333.88;;;8.05;100.00
54038;BME280;39954;48.844;9.726;2023-05-24T02:22:52;96332.81;;;8.09;100.00
54038;BME280;39954;48.844;9.726;2023-05-24T02:23:54;96331.78;;;8.13;100.00
54038;BME280;39954;48.844;9.726;2023-05-24T02:24:59;96335.03;;;8.18;100.00
54038;BME280;39954;48.844;9.726;2023-05-24T02:26:01;96331.38;;;8.22;100.00
54038;BME280;39954;48.844;9.726;2023-05-24T02:27:06;96330.41;;;8.25;100.00
54038;BME280;39954;48.844;9.726;2023-05-24T02:28:08;96337.22;;;8.27;100.00
54038;BME280;39954;48.844;9.726;2023-05-24T02:29:13;96337.06;;;8.30;100.00
54038;BME280;39954;48.844;9.726;2023-05-24T02:30:17;96332.53;;;8.36;100.00
54038;BME280;39954;48.844;9.726;2023-05-24T02:31:22;96328.09;;;8.39;100.00
54038;BME280;39954;48.844;9.726;2023-05-24T02:32:26;96333.13;;;8.42;100.00
54038;BME280;39954;48.844;9.726;2023-05-24T02:33:32;96337.34;;;8.45;100.00
54038;BME280;39954;48.844;9.726;2023-05-24T02:34:34;96332.00;;;8.48;100.00
54038;BME280;39954;48.844;9.726;2023-05-24T02:35:39;96333.63;;;8.50;100.00
54038;BME280;39954;48.844;9.726;2023-05-24T02:36:42;96337.78;;;8.55;100.00
54038;BME280;39954;48.844;9.726;2023-05-24T02:37:47;96328.25;;;8.55;100.00
54038;BME280;39954;48.844;9.726;2023-05-24T02:38:52;96334.13;;;8.59;100.00
54038;BME280;39954;48.844;9.726;2023-05-24T02:39:54;96330.75;;;8.57;100.00
54038;BME280;39954;48.844;9.726;2023-05-24T02:40:59;96339.41;;;8.57;100.00
54038;BME280;39954;48.844;9.726;2023-05-24T02:42:01;96328.75;;;8.63;100.00
54038;BME280;39954;48.844;9.726;2023-05-24T02:43:06;96331.19;;;8.66;100.00
54038;BME280;39954;48.844;9.726;2023-05-24T02:44:10;96332.09;;;8.65;100.00
54038;BME280;39954;48.844;9.726;2023-05-24T02:45:17;96328.75;;;8.63;100.00
54038;BME280;39954;48.844;9.726;2023-05-24T02:46:20;96331.34;;;8.63;100.00
54038;BME280;39954;48.844;9.726;2023-05-24T02:47:24;96335.59;;;8.64;100.00
54038;BME280;39954;48.844;9.726;2023-05-24T02:48:28;96329.59;;;8.64;100.00
54038;BME280;39954;48.844;9.726;2023-05-24T02:49:33;96327.84;;;8.64;100.00
54038;BME280;39954;48.844;9.726;2023-05-24T02:50:35;96330.56;;;8.61;100.00
54038;BME280;39954;48.844;9.726;2023-05-24T02:51:40;96327.97;;;8.61;100.00
54038;BME280;39954;48.844;9.726;2023-05-24T02:52:42;96331.47;;;8.60;100.00
54038;BME280;39954;48.844;9.726;2023-05-24T02:53:47;96327.34;;;8.56;100.00
54038;BME280;39954;48.844;9.726;2023-05-24T02:54:49;96330.91;;;8.54;100.00
54038;BME280;39954;48.844;9.726;2023-05-24T02:55:54;96330.91;;;8.54;100.00
54038;BME280;39954;48.844;9.726;2023-05-24T02:56:57;96334.41;;;8.52;100.00
54038;BME280;39954;48.844;9.726;2023-05-24T02:58:02;96329.28;;;8.51;100.00
54038;BME280;39954;48.844;9.726;2023-05-24T02:59:04;96329.38;;;8.49;100.00
54038;BME280;39954;48.844;9.726;2023-05-24T03:00:10;96331.88;;;8.51;100.00
54038;BME280;39954;48.844;9.726;2023-05-24T03:01:15;96332.75;;;8.51;100.00
54038;BME280;39954;48.844;9.726;2023-05-24T03:02:22;96332.66;;;8.53;100.00
54038;BME280;39954;48.844;9.726;2023-05-24T03:03:24;96327.47;;;8.53;100.00
54038;BME280;39954;48.844;9.726;2023-05-24T03:04:29;96328.94;;;8.59;100.00
54038;BME280;39954;48.844;9.726;2023-05-24T03:05:31;96331.34;;;8.63;100.00
54038;BME280;39954;48.844;9.726;2023-05-24T03:06:36;96321.81;;;8.64;100.00
54038;BME280;39954;48.844;9.726;2023-05-24T03:07:38;96328.75;;;8.63;100.00
54038;BME280;39954;48.844;9.726;2023-05-24T03:08:43;96323.47;;;8.65;100.00
54038;BME280;39954;48.844;9.726;2023-05-24T03:09:45;96324.25;;;8.67;100.00
54038;BME280;39954;48.844;9.726;2023-05-24T03:10:50;96323.97;;;8.73;100.00
54038;BME280;39954;48.844;9.726;2023-05-24T03:11:52;96319.78;;;8.70;100.00
54038;BME280;39954;48.844;9.726;2023-05-24T03:12:57;96324.06;;;8.71;100.00
54038;BME280;39954;48.844;9.726;2023-05-24T03:13:59;96320.59;;;8.71;100.00
54038;BME280;39954;48.844;9.726;2023-05-24T03:15:05;96323.34;;;8.68;100.00
54038;BME280;39954;48.844;9.726;2023-05-24T03:16:08;96320.84;;;8.66;100.00
54038;BME280;39954;48.844;9.726;2023-05-24T03:17:15;96321.72;;;8.65;100.00
54038;BME280;39954;48.844;9.726;2023-05-24T03:18:17;96324.53;;;8.61;100.00
54038;BME280;39954;48.844;9.726;2023-05-24T03:19:22;96322.66;;;8.64;100.00
54038;BME280;39954;48.844;9.726;2023-05-24T03:20:24;96325.38;;;8.61;100.00
54038;BME280;39954;48.844;9.726;2023-05-24T03:21:29;96327.84;;;8.64;100.00
54038;BME280;39954;48.844;9.726;2023-05-24T03:22:32;96324.47;;;8.62;100.00
54038;BME280;39954;48.844;9.726;2023-05-24T03:23:37;96326.03;;;8.66;100.00
54038;BME280;39954;48.844;9.726;2023-05-24T03:24:39;96327.69;;;8.67;100.00
54038;BME280;39954;48.844;9.726;2023-05-24T03:25:44;96322.78;;;8.61;100.00
54038;BME280;39954;48.844;9.726;2023-05-24T03:26:46;96326.31;;;8.60;100.00
54038;BME280;39954;48.844;9.726;2023-05-24T03:27:51;96329.91;;;8.56;100.00
54038;BME280;39954;48.844;9.726;2023-05-24T03:28:53;96327.47;;;8.53;100.00
54038;BME280;39954;48.844;9.726;2023-05-24T03:29:58;96325.03;;;8.50;100.00
54038;BME280;39954;48.844;9.726;2023-05-24T03:31:00;96329.41;;;8.48;100.00
54038;BME280;39954;48.844;9.726;2023-05-24T03:32:05;96332.16;;;8.45;100.00
54038;BME280;39954;48.844;9.726;2023-05-24T03:33:10;96329.78;;;8.40;100.00
54038;BME280;39954;48.844;9.726;2023-05-24T03:34:14;96334.09;;;8.40;100.00
54038;BME280;39954;48.844;9.726;2023-05-24T03:35:17;96334.81;;;8.43;100.00
54038;BME280;39954;48.844;9.726;2023-05-24T03:36:21;96330.47;;;8.44;100.00
54038;BME280;39954;48.844;9.726;2023-05-24T03:37:26;96335.53;;;8.47;100.00
54038;BME280;39954;48.844;9.726;2023-05-24T03:38:30;96335.53;;;8.47;100.00
54038;BME280;39954;48.844;9.726;2023-05-24T03:39:35;96331.13;;;8.49;100.00
54038;BME280;39954;48.844;9.726;2023-05-24T03:40:37;96328.69;;;8.46;100.00
54038;BME280;39954;48.844;9.726;2023-05-24T03:41:42;96330.34;;;8.47;100.00
54038;BME280;39954;48.844;9.726;2023-05-24T03:42:44;96330.25;;;8.48;100.00
54038;BME280;39954;48.844;9.726;2023-05-24T03:43:49;96325.94;;;8.49;100.00
54038;BME280;39954;48.844;9.726;2023-05-24T03:44:51;96323.50;;;8.46;100.00
54038;BME280;39954;48.844;9.726;2023-05-24T03:45:55;96329.69;;;8.42;100.00
54038;BME280;39954;48.844;9.726;2023-05-24T03:46:57;96330.72;;;8.38;100.00
54038;BME280;39954;48.844;9.726;2023-05-24T03:48:03;96321.25;;;8.37;100.00
54038;BME280;39954;48.844;9.726;2023-05-24T03:49:08;96327.41;;;8.34;100.00
54038;BME280;39954;48.844;9.726;2023-05-24T03:50:12;96328.38;;;8.32;100.00
54038;BME280;39954;48.844;9.726;2023-05-24T03:51:15;96328.34;;;8.33;100.00
54038;BME280;39954;48.844;9.726;2023-05-24T03:52:19;96327.78;;;8.26;100.00
54038;BME280;39954;48.844;9.726;2023-05-24T03:53:22;96327.91;;;8.23;100.00
54038;BME280;39954;48.844;9.726;2023-05-24T03:54:26;96334.94;;;8.20;100.00
54038;BME280;39954;48.844;9.726;2023-05-24T03:55:29;96335.91;;;8.17;100.00
54038;BME280;39954;48.844;9.726;2023-05-24T03:56:33;96328.00;;;8.20;100.00
54038;BME280;39954;48.844;9.726;2023-05-24T03:57:36;96335.03;;;8.18;100.00
54038;BME280;39954;48.844;9.726;2023-05-24T03:58:40;96331.66;;;8.16;100.00
54038;BME280;39954;48.844;9.726;2023-05-24T03:59:42;96331.66;;;8.16;100.00
54038;BME280;39954;48.844;9.726;2023-05-24T04:00:47;96328.16;;;8.17;100.00
54038;BME280;39954;48.844;9.726;2023-05-24T04:01:49;96329.06;;;8.16;100.00
54038;BME280;39954;48.844;9.726;2023-05-24T04:02:54;96329.13;;;8.15;100.00
54038;BME280;39954;48.844;9.726;2023-05-24T04:03:56;96328.16;;;8.17;100.00
54038;BME280;39954;48.844;9.726;2023-05-24T04:05:05;96323.88;;;8.16;100.00
54038;BME280;39954;48.844;9.726;2023-05-24T04:06:11;96315.22;;;8.17;100.00
54038;BME280;39954;48.844;9.726;2023-05-24T04:07:18;96316.06;;;8.18;100.00
54038;BME280;39954;48.844;9.726;2023-05-24T04:08:20;96317.66;;;8.20;100.00
54038;BME280;39954;48.844;9.726;2023-05-24T04:09:25;96323.75;;;8.19;100.00
54038;BME280;39954;48.844;9.726;2023-05-24T04:10:27;96318.66;;;8.18;100.00
54038;BME280;39954;48.844;9.726;2023-05-24T04:11:32;96326.47;;;8.16;100.00
54038;BME280;39954;48.844;9.726;2023-05-24T04:12:34;96323.06;;;8.16;100.00
54038;BME280;39954;48.844;9.726;2023-05-24T04:13:39;96319.63;;;8.15;100.00
54038;BME280;39954;48.844;9.726;2023-05-24T04:14:41;96310.16;;;8.14;100.00
54038;BME280;39954;48.844;9.726;2023-05-24T04:15:46;96323.94;;;8.15;100.00
54038;BME280;39954;48.844;9.726;2023-05-24T04:16:48;96318.75;;;8.15;100.00
54038;BME280;39954;48.844;9.726;2023-05-24T04:17:54;96323.94;;;8.15;100.00
54038;BME280;39954;48.844;9.726;2023-05-24T04:18:56;96325.03;;;8.09;100.00
54038;BME280;39954;48.844;9.726;2023-05-24T04:20:05;96319.88;;;8.09;100.00
54038;BME280;39954;48.844;9.726;2023-05-24T04:21:08;96321.50;;;8.12;100.00
54038;BME280;39954;48.844;9.726;2023-05-24T04:22:12;96317.94;;;8.14;100.00
54038;BME280;39954;48.844;9.726;2023-05-24T04:23:15;96316.13;;;8.16;100.00
54038;BME280;39954;48.844;9.726;2023-05-24T04:24:19;96317.78;;;8.17;100.00
54038;BME280;39954;48.844;9.726;2023-05-24T04:25:22;96317.78;;;8.17;100.00
54038;BME280;39954;48.844;9.726;2023-05-24T04:26:27;96312.47;;;8.20;100.00
54038;BME280;39954;48.844;9.726;2023-05-24T04:27:30;96314.19;;;8.21;100.00
54038;BME280;39954;48.844;9.726;2023-05-24T04:28:37;96324.53;;;8.21;100.00
54038;BME280;39954;48.844;9.726;2023-05-24T04:29:40;96315.72;;;8.25;100.00
54038;BME280;39954;48.844;9.726;2023-05-24T04:30:45;96315.56;;;8.28;100.00
54038;BME280;39954;48.844;9.726;2023-05-24T04:31:47;96323.44;;;8.27;100.00
54038;BME280;39954;48.844;9.726;2023-05-24T04:32:52;96315.53;;;8.30;100.00
54038;BME280;39954;48.844;9.726;2023-05-24T04:33:54;96320.00;;;8.26;100.00
54038;BME280;39954;48.844;9.726;2023-05-24T04:35:00;96315.53;;;8.30;100.00
54038;BME280;39954;48.844;9.726;2023-05-24T04:36:06;96314.59;;;8.31;100.00
54038;BME280;39954;48.844;9.726;2023-05-24T04:37:12;96326.66;;;8.32;100.00
54038;BME280;39954;48.844;9.726;2023-05-24T04:38:14;96316.22;;;8.34;100.00
54038;BME280;39954;48.844;9.726;2023-05-24T04:39:22;96321.25;;;8.37;100.00
54038;BME280;39954;48.844;9.726;2023-05-24T04:40:24;96316.88;;;8.39;100.00
54038;BME280;39954;48.844;9.726;2023-05-24T04:41:29;96322.03;;;8.40;100.00
54038;BME280;39954;48.844;9.726;2023-05-24T04:42:32;96322.84;;;8.41;100.00
54038;BME280;39954;48.844;9.726;2023-05-24T04:43:37;96322.78;;;8.42;100.00
54038;BME280;39954;48.844;9.726;2023-05-24T04:44:40;96318.22;;;8.47;100.00
54038;BME280;39954;48.844;9.726;2023-05-24T04:45:45;96320.75;;;8.49;100.00
54038;BME280;39954;48.844;9.726;2023-05-24T04:46:48;96320.81;;;8.47;100.00
54038;BME280;39954;48.844;9.726;2023-05-24T04:47:53;96322.44;;;8.50;100.00
54038;BME280;39954;48.844;9.726;2023-05-24T04:48:55;96323.06;;;8.55;100.00
54038;BME280;39954;48.844;9.726;2023-05-24T04:49:59;96322.16;;;8.56;100.00
54038;BME280;39954;48.844;9.726;2023-05-24T04:51:16;96328.91;;;8.60;100.00
54038;BME280;39954;48.844;9.726;2023-05-24T04:52:20;96330.56;;;8.61;100.00
54038;BME280;39954;48.844;9.726;2023-05-24T04:53:23;96334.97;;;8.59;100.00
54038;BME280;39954;48.844;9.726;2023-05-24T04:54:28;96331.25;;;8.65;100.00
54038;BME280;39954;48.844;9.726;2023-05-24T04:55:31;96335.75;;;8.61;100.00
54038;BME280;39954;48.844;9.726;2023-05-24T04:56:37;96332.19;;;8.64;100.00
54038;BME280;39954;48.844;9.726;2023-05-24T04:57:39;96325.88;;;8.69;100.00
54038;BME280;39954;48.844;9.726;2023-05-24T04:58:44;96331.91;;;8.70;100.00
54038;BME280;39954;48.844;9.726;2023-05-24T04:59:46;96328.88;;;8.79;100.00
54038;BME280;39954;48.844;9.726;2023-05-24T05:00:51;96328.97;;;8.78;100.00
54038;BME280;39954;48.844;9.726;2023-05-24T05:01:53;96325.69;;;8.74;100.00
54038;BME280;39954;48.844;9.726;2023-05-24T05:02:58;96326.56;;;8.73;100.00
54038;BME280;39954;48.844;9.726;2023-05-24T05:04:02;96322.38;;;8.70;100.00
54038;BME280;39954;48.844;9.726;2023-05-24T05:05:08;96330.00;;;8.73;100.00
54038;BME280;39954;48.844;9.726;2023-05-24T05:06:10;96335.97;;;8.76;100.00
54038;BME280;39954;48.844;9.726;2023-05-24T05:07:19;96332.59;;;8.73;100.00
54038;BME280;39954;48.844;9.726;2023-05-24T05:08:21;96344.38;;;8.81;100.00
54038;BME280;39954;48.844;9.726;2023-05-24T05:09:26;96332.19;;;8.83;100.00
54038;BME280;39954;48.844;9.726;2023-05-24T05:10:29;96335.75;;;8.80;100.00
54038;BME280;39954;48.844;9.726;2023-05-24T05:11:34;96336.31;;;8.87;100.00
54038;BME280;39954;48.844;9.726;2023-05-24T05:12:36;96334.53;;;8.87;100.00
54038;BME280;39954;48.844;9.726;2023-05-24T05:13:41;96328.53;;;8.87;100.00
54038;BME280;39954;48.844;9.726;2023-05-24T05:14:43;96335.81;;;8.98;100.00
54038;BME280;39954;48.844;9.726;2023-05-24T05:15:48;96330.91;;;8.91;100.00
54038;BME280;39954;48.844;9.726;2023-05-24T05:16:53;96337.38;;;8.83;100.00
54038;BME280;39954;48.844;9.726;2023-05-24T05:17:58;96338.69;;;8.91;100.00
54038;BME280;39954;48.844;9.726;2023-05-24T05:19:01;96342.91;;;8.94;100.00
54038;BME280;39954;48.844;9.726;2023-05-24T05:20:07;96332.72;;;8.89;100.00
54038;BME280;39954;48.844;9.726;2023-05-24T05:21:12;96336.78;;;8.95;100.00
54038;BME280;39954;48.844;9.726;2023-05-24T05:22:14;96330.84;;;8.93;100.00
54038;BME280;39954;48.844;9.726;2023-05-24T05:23:22;96340.03;;;9.00;100.00
54038;BME280;39954;48.844;9.726;2023-05-24T05:24:27;96344.13;;;9.04;100.00
54038;BME280;39954;48.844;9.726;2023-05-24T05:25:32;96337.44;;;9.00;100.00
54038;BME280;39954;48.844;9.726;2023-05-24T05:26:34;96336.50;;;9.01;100.00
54038;BME280;39954;48.844;9.726;2023-05-24T05:27:39;96335.94;;;9.13;100.00
54038;BME280;39954;48.844;9.726;2023-05-24T05:28:41;96322.22;;;9.11;100.00
54038;BME280;39954;48.844;9.726;2023-05-24T05:29:46;96321.91;;;9.17;100.00
54038;BME280;39954;48.844;9.726;2023-05-24T05:30:51;96328.50;;;9.25;100.00
54038;BME280;39954;48.844;9.726;2023-05-24T05:31:53;96320.72;;;9.25;100.00
54038;BME280;39954;48.844;9.726;2023-05-24T05:32:58;96321.38;;;9.11;100.00
54038;BME280;39954;48.844;9.726;2023-05-24T05:34:00;96328.22;;;9.12;100.00
54038;BME280;39954;48.844;9.726;2023-05-24T05:35:06;96326.94;;;9.21;100.00
54038;BME280;39954;48.844;9.726;2023-05-24T05:36:11;96329.97;;;9.30;100.00
54038;BME280;39954;48.844;9.726;2023-05-24T05:37:13;96327.91;;;9.37;100.00
54038;BME280;39954;48.844;9.726;2023-05-24T05:38:18;96333.25;;;9.34;100.00
54038;BME280;39954;48.844;9.726;2023-05-24T05:39:23;96330.97;;;9.45;100.00
54038;BME280;39954;48.844;9.726;2023-05-24T05:40:27;96326.56;;;9.47;100.00
54038;BME280;39954;48.844;9.726;2023-05-24T05:41:30;96324.59;;;9.52;100.00
54038;BME280;39954;48.844;9.726;2023-05-24T05:42:34;96323.19;;;9.62;100.00
54038;BME280;39954;48.844;9.726;2023-05-24T05:43:39;96321.38;;;9.64;100.00